sensor_id;sensor_type;location;lat;lon;timestamp;temperature;humidity
21849;DHT22;11089;49.852;19.700;2023-03-16T00:01:50;2.20;1.00
21849;DHT22;11089;49.852;19.700;2023-03-16T00:04:51;2.30;1.00
21849;DHT22;11089;49.852;19.700;2023-03-16T00:07:52;2.20;1.00
21849;DHT22;11089;49.852;19.700;2023-03-16T00:10:53;2.30;1.00
21849;DHT22;11089;49.852;19.700;2023-03-16T00:13:54;2.20;1.00
21849;DHT22;11089;49.852;19.700;2023-03-16T00:16:55;2.20;42.30
21849;DHT22;11089;49.852;19.700;2023-03-16T00:19:56;2.20;13.60
21849;DHT22;11089;49.852;19.700;2023-03-16T00:22:58;2.20;99.90
21849;DHT22;11089;49.852;19.700;2023-03-16T00:26:00;2.20;99.90
21849;DHT22;11089;49.852;19.700;2023-03-16T00:29:02;2.10;89.90
21849;DHT22;11089;49.852;19.700;2023-03-16T00:32:04;2.10;58.10
21849;DHT22;11089;49.852;19.700;2023-03-16T00:35:05;2.10;99.90
21849;DHT22;11089;49.852;19.700;2023-03-16T00:38:06;2.10;96.00
21849;DHT22;11089;49.852;19.700;2023-03-16T00:41:07;2.00;99.90
21849;DHT22;11089;49.852;19.700;2023-03-16T00:44:08;2.00;99.90
21849;DHT22;11089;49.852;19.700;2023-03-16T00:47:11;1.90;99.90
21849;DHT22;11089;49.852;19.700;2023-03-16T00:50:15;1.90;99.90
21849;DHT22;11089;49.852;19.700;2023-03-16T00:53:16;1.90;99.90
21849;DHT22;11089;49.852;19.700;2023-03-16T00:56:17;1.70;99.90
21849;DHT22;11089;49.852;19.700;2023-03-16T00:59:18;1.80;99.90
21849;DHT22;11089;49.852;19.700;2023-03-16T01:02:20;1.70;99.90
21849;DHT22;11089;49.852;19.700;2023-03-16T01:05:24;1.70;1.00
21849;DHT22;11089;49.852;19.700;2023-03-16T01:08:26;1.60;1.00
21849;DHT22;11089;49.852;19.700;2023-03-16T01:11:30;1.60;1.00
21849;DHT22;11089;49.852;19.700;2023-03-16T01:14:34;1.50;1.00
21849;DHT22;11089;49.852;19.700;2023-03-16T01:17:35;1.70;59.10
21849;DHT22;11089;49.852;19.700;2023-03-16T01:20:36;1.40;99.90
21849;DHT22;11089;49.852;19.700;2023-03-16T01:23:37;0.80;1.00
21849;DHT22;11089;49.852;19.700;2023-03-16T01:26:38;1.20;99.90
21849;DHT22;11089;49.852;19.700;2023-03-16T01:29:39;1.20;1.00
21849;DHT22;11089;49.852;19.700;2023-03-16T01:32:43;2.00;99.90
21849;DHT22;11089;49.852;19.700;2023-03-16T01:35:52;1.20;1.00
21849;DHT22;11089;49.852;19.700;2023-03-16T01:38:55;1.20;1.00
21849;DHT22;11089;49.852;19.700;2023-03-16T01:41:55;1.10;1.00
21849;DHT22;11089;49.852;19.700;2023-03-16T01:44:58;1.00;99.90
21849;DHT22;11089;49.852;19.700;2023-03-16T01:48:05;0.90;1.00
21849;DHT22;11089;49.852;19.700;2023-03-16T01:51:23;0.90;99.90
21849;DHT22;11089;49.852;19.700;2023-03-16T01:54:48;0.70;1.00
21849;DHT22;11089;49.852;19.700;2023-03-16T01:57:49;1.40;1.00
21849;DHT22;11089;49.852;19.700;2023-03-16T02:00:50;0.60;99.90
21849;DHT22;11089;49.852;19.700;2023-03-16T02:03:56;0.60;1.00
21849;DHT22;11089;49.852;19.700;2023-03-16T02:06:58;0.40;99.90
21849;DHT22;11089;49.852;19.700;2023-03-16T02:10:00;0.50;99.90
21849;DHT22;11089;49.852;19.700;2023-03-16T02:13:03;0.40;99.90
21849;DHT22;11089;49.852;19.700;2023-03-16T02:16:06;0.40;99.90
21849;DHT22;11089;49.852;19.700;2023-03-16T02:19:11;0.30;99.90
21849;DHT22;11089;49.852;19.700;2023-03-16T02:22:13;0.30;1.00
21849;DHT22;11089;49.852;19.700;2023-03-16T02:25:17;0.30;99.90
21849;DHT22;11089;49.852;19.700;2023-03-16T02:31:36;0.20;1.00
21849;DHT22;11089;49.852;19.700;2023-03-16T02:34:38;0.20;1.00
21849;DHT22;11089;49.852;19.700;2023-03-16T02:37:39;0.30;1.00
21849;DHT22;11089;49.852;19.700;2023-03-16T02:40:41;0.20;84.90
21849;DHT22;11089;49.852;19.700;2023-03-16T02:44:06;0.40;99.90
21849;DHT22;11089;49.852;19.700;2023-03-16T02:47:33;0.30;1.00
21849;DHT22;11089;49.852;19.700;2023-03-16T02:50:35;0.00;99.90
21849;DHT22;11089;49.852;19.700;2023-03-16T02:53:36;0.00;99.90
21849;DHT22;11089;49.852;19.700;2023-03-16T02:56:38;-0.10;1.00
21849;DHT22;11089;49.852;19.700;2023-03-16T02:59:39;0.00;99.90
21849;DHT22;11089;49.852;19.700;2023-03-16T03:02:41;0.00;1.00
21849;DHT22;11089;49.852;19.700;2023-03-16T03:05:42;-0.10;99.90
21849;DHT22;11089;49.852;19.700;2023-03-16T03:08:43;0.00;35.80
21849;DHT22;11089;49.852;19.700;2023-03-16T03:11:44;-0.10;1.00
21849;DHT22;11089;49.852;19.700;2023-03-16T03:14:48;-0.10;76.70
21849;DHT22;11089;49.852;19.700;2023-03-16T03:17:49;-0.10;1.00
21849;DHT22;11089;49.852;19.700;2023-03-16T03:20:50;-0.20;99.90
21849;DHT22;11089;49.852;19.700;2023-03-16T03:23:51;-0.20;99.90
21849;DHT22;11089;49.852;19.700;2023-03-16T03:26:53;-0.30;1.00
21849;DHT22;11089;49.852;19.700;2023-03-16T03:29:54;-0.20;1.00
21849;DHT22;11089;49.852;19.700;2023-03-16T03:32:55;-0.30;1.00
21849;DHT22;11089;49.852;19.700;2023-03-16T03:35:57;-0.30;99.90
21849;DHT22;11089;49.852;19.700;2023-03-16T03:38:58;-0.40;1.00
21849;DHT22;11089;49.852;19.700;2023-03-16T03:41:59;-0.30;99.90
21849;DHT22;11089;49.852;19.700;2023-03-16T03:45:02;-0.30;99.90
21849;DHT22;11089;49.852;19.700;2023-03-16T03:48:04;-0.40;1.00
21849;DHT22;11089;49.852;19.700;2023-03-16T03:51:05;-0.40;1.00
21849;DHT22;11089;49.852;19.700;2023-03-16T03:54:07;-0.40;1.00
21849;DHT22;11089;49.852;19.700;2023-03-16T03:57:08;-0.40;1.00
21849;DHT22;11089;49.852;19.700;2023-03-16T04:00:10;-0.40;99.90
21849;DHT22;11089;49.852;19.700;2023-03-16T04:03:11;-0.50;1.00
21849;DHT22;11089;49.852;19.700;2023-03-16T04:06:12;-0.50;99.90
21849;DHT22;11089;49.852;19.700;2023-03-16T04:09:13;-0.40;1.00
21849;DHT22;11089;49.852;19.700;2023-03-16T04:12:14;-0.40;32.00
21849;DHT22;11089;49.852;19.700;2023-03-16T04:15:15;-0.40;1.00
21849;DHT22;11089;49.852;19.700;2023-03-16T04:18:16;-0.40;99.90
21849;DHT22;11089;49.852;19.700;2023-03-16T04:21:17;-0.50;1.00
21849;DHT22;11089;49.852;19.700;2023-03-16T04:24:18;-0.50;99.90
21849;DHT22;11089;49.852;19.700;2023-03-16T04:27:19;-0.50;99.90
21849;DHT22;11089;49.852;19.700;2023-03-16T04:30:21;-0.50;1.00
21849;DHT22;11089;49.852;19.700;2023-03-16T04:33:24;-0.50;99.90
21849;DHT22;11089;49.852;19.700;2023-03-16T04:36:25;-0.40;1.00
21849;DHT22;11089;49.852;19.700;2023-03-16T04:39:26;-0.40;99.90
21849;DHT22;11089;49.852;19.700;2023-03-16T04:42:27;-0.40;1.00
21849;DHT22;11089;49.852;19.700;2023-03-16T04:45:28;-0.40;1.00
21849;DHT22;11089;49.852;19.700;2023-03-16T04:48:30;-0.50;1.00
21849;DHT22;11089;49.852;19.700;2023-03-16T04:51:31;-0.50;1.00
21849;DHT22;11089;49.852;19.700;2023-03-16T04:54:32;-0.50;99.90
21849;DHT22;11089;49.852;19.700;2023-03-16T04:57:33;-0.50;1.00
21849;DHT22;11089;49.852;19.700;2023-03-16T05:00:34;-0.60;1.00
21849;DHT22;11089;49.852;19.700;2023-03-16T05:03:36;-0.60;1.00
21849;DHT22;11089;49.852;19.700;2023-03-16T05:06:37;-0.60;1.00
21849;DHT22;11089;49.852;19.700;2023-03-16T05:09:38;-0.60;1.00
21849;DHT22;11089;49.852;19.700;2023-03-16T05:12:39;-0.70;99.90
21849;DHT22;11089;49.852;19.700;2023-03-16T05:15:40;-0.60;99.90
21849;DHT22;11089;49.852;19.700;2023-03-16T05:18:41;-0.50;99.90
21849;DHT22;11089;49.852;19.700;2023-03-16T05:21:43;-0.60;1.00
21849;DHT22;11089;49.852;19.700;2023-03-16T05:24:45;-0.60;1.00
21849;DHT22;11089;49.852;19.700;2023-03-16T05:27:48;-0.50;99.90
21849;DHT22;11089;49.852;19.700;2023-03-16T05:30:50;-0.50;99.90
21849;DHT22;11089;49.852;19.700;2023-03-16T05:33:52;-0.40;99.90
21849;DHT22;11089;49.852;19.700;2023-03-16T05:36:53;-0.50;1.00
21849;DHT22;11089;49.852;19.700;2023-03-16T05:39:54;-0.50;3.40
21849;DHT22;11089;49.852;19.700;2023-03-16T05:42:57;-0.50;99.90
21849;DHT22;11089;49.852;19.700;2023-03-16T05:46:00;-0.40;99.90
21849;DHT22;11089;49.852;19.700;2023-03-16T05:49:01;-0.50;99.90
21849;DHT22;11089;49.852;19.700;2023-03-16T05:52:02;-0.40;1.00
21849;DHT22;11089;49.852;19.700;2023-03-16T05:55:08;-0.40;1.00
21849;DHT22;11089;49.852;19.700;2023-03-16T05:58:09;-0.40;1.00
21849;DHT22;11089;49.852;19.700;2023-03-16T06:01:11;-0.40;1.00
21849;DHT22;11089;49.852;19.700;2023-03-16T06:04:12;-0.40;1.00
21849;DHT22;11089;49.852;19.700;2023-03-16T06:07:13;-0.40;1.00
21849;DHT22;11089;49.852;19.700;2023-03-16T06:10:15;-0.40;1.00
21849;DHT22;11089;49.852;19.700;2023-03-16T06:13:16;-0.40;1.00
21849;DHT22;11089;49.852;19.700;2023-03-16T06:16:16;0.10;1.00
21849;DHT22;11089;49.852;19.700;2023-03-16T06:19:17;-0.30;1.00
21849;DHT22;11089;49.852;19.700;2023-03-16T06:22:18;-0.10;1.00
21849;DHT22;11089;49.852;19.700;2023-03-16T06:25:19;-0.10;1.00
21849;DHT22;11089;49.852;19.700;2023-03-16T06:28:21;0.00;1.00
21849;DHT22;11089;49.852;19.700;2023-03-16T06:31:22;0.20;1.00
21849;DHT22;11089;49.852;19.700;2023-03-16T06:34:23;0.20;99.90
21849;DHT22;11089;49.852;19.700;2023-03-16T06:37:24;0.40;99.90
21849;DHT22;11089;49.852;19.700;2023-03-16T06:40:25;0.60;1.00
21849;DHT22;11089;49.852;19.700;2023-03-16T06:43:26;0.80;1.00
21849;DHT22;11089;49.852;19.700;2023-03-16T06:46:27;0.90;1.00
21849;DHT22;11089;49.852;19.700;2023-03-16T06:49:28;0.90;1.00
21849;DHT22;11089;49.852;19.700;2023-03-16T06:52:30;1.10;99.90
21849;DHT22;11089;49.852;19.700;2023-03-16T06:55:31;1.20;1.00
21849;DHT22;11089;49.852;19.700;2023-03-16T06:58:32;1.50;1.00
21849;DHT22;11089;49.852;19.700;2023-03-16T07:01:33;1.70;99.90
21849;DHT22;11089;49.852;19.700;2023-03-16T07:04:34;1.70;1.00
21849;DHT22;11089;49.852;19.700;2023-03-16T07:07:35;1.80;1.00
21849;DHT22;11089;49.852;19.700;2023-03-16T07:10:36;1.80;1.00
21849;DHT22;11089;49.852;19.700;2023-03-16T07:13:37;1.90;99.90
21849;DHT22;11089;49.852;19.700;2023-03-16T07:16:38;2.00;1.00
21849;DHT22;11089;49.852;19.700;2023-03-16T07:19:39;1.80;99.90
21849;DHT22;11089;49.852;19.700;2023-03-16T07:22:40;1.90;99.90
21849;DHT22;11089;49.852;19.700;2023-03-16T07:25:41;2.00;99.90
21849;DHT22;11089;49.852;19.700;2023-03-16T07:28:44;2.30;99.90
21849;DHT22;11089;49.852;19.700;2023-03-16T07:31:45;2.40;99.90
21849;DHT22;11089;49.852;19.700;2023-03-16T07:34:46;2.40;1.00
21849;DHT22;11089;49.852;19.700;2023-03-16T07:37:47;2.50;1.00
21849;DHT22;11089;49.852;19.700;2023-03-16T07:40:49;2.50;1.00
21849;DHT22;11089;49.852;19.700;2023-03-16T07:43:51;2.40;1.00
21849;DHT22;11089;49.852;19.700;2023-03-16T07:46:53;2.30;1.00
21849;DHT22;11089;49.852;19.700;2023-03-16T07:49:54;2.40;1.00
21849;DHT22;11089;49.852;19.700;2023-03-16T07:52:54;2.40;1.00
21849;DHT22;11089;49.852;19.700;2023-03-16T07:55:55;2.60;1.00
21849;DHT22;11089;49.852;19.700;2023-03-16T07:58:56;2.60;1.00
21849;DHT22;11089;49.852;19.700;2023-03-16T08:01:57;2.90;1.00
21849;DHT22;11089;49.852;19.700;2023-03-16T08:04:58;3.10;1.00
21849;DHT22;11089;49.852;19.700;2023-03-16T08:07:59;3.10;99.90
21849;DHT22;11089;49.852;19.700;2023-03-16T08:11:03;3.40;1.00
21849;DHT22;11089;49.852;19.700;2023-03-16T08:14:04;3.90;1.00
21849;DHT22;11089;49.852;19.700;2023-03-16T08:17:05;4.00;1.00
21849;DHT22;11089;49.852;19.700;2023-03-16T08:20:10;4.20;99.90
21849;DHT22;11089;49.852;19.700;2023-03-16T08:23:14;4.80;99.90
21849;DHT22;11089;49.852;19.700;2023-03-16T08:26:16;4.80;1.00
21849;DHT22;11089;49.852;19.700;2023-03-16T08:29:18;5.10;1.00
21849;DHT22;11089;49.852;19.700;2023-03-16T08:32:19;5.10;1.00
21849;DHT22;11089;49.852;19.700;2023-03-16T08:35:20;5.10;99.90
21849;DHT22;11089;49.852;19.700;2023-03-16T08:38:21;5.00;99.90
21849;DHT22;11089;49.852;19.700;2023-03-16T08:41:22;6.20;99.90
21849;DHT22;11089;49.852;19.700;2023-03-16T08:44:23;10.30;1.00
21849;DHT22;11089;49.852;19.700;2023-03-16T08:47:25;10.00;1.00
21849;DHT22;11089;49.852;19.700;2023-03-16T08:50:26;11.40;1.00
21849;DHT22;11089;49.852;19.700;2023-03-16T08:53:28;12.80;1.00
21849;DHT22;11089;49.852;19.700;2023-03-16T08:56:28;11.20;1.00
21849;DHT22;11089;49.852;19.700;2023-03-16T08:59:30;13.30;1.00
21849;DHT22;11089;49.852;19.700;2023-03-16T09:02:31;13.30;99.90
21849;DHT22;11089;49.852;19.700;2023-03-16T09:05:33;15.60;99.90
21849;DHT22;11089;49.852;19.700;2023-03-16T09:08:34;12.50;99.90
21849;DHT22;11089;49.852;19.700;2023-03-16T09:11:35;10.40;99.90
21849;DHT22;11089;49.852;19.700;2023-03-16T09:14:36;9.10;99.90
21849;DHT22;11089;49.852;19.700;2023-03-16T09:17:38;8.10;99.90
21849;DHT22;11089;49.852;19.700;2023-03-16T09:20:41;11.10;99.90
21849;DHT22;11089;49.852;19.700;2023-03-16T09:23:42;16.40;99.90
21849;DHT22;11089;49.852;19.700;2023-03-16T09:26:43;17.20;99.90
21849;DHT22;11089;49.852;19.700;2023-03-16T09:29:45;15.20;99.90
21849;DHT22;11089;49.852;19.700;2023-03-16T09:32:46;12.90;99.90
21849;DHT22;11089;49.852;19.700;2023-03-16T09:35:48;11.50;99.90
21849;DHT22;11089;49.852;19.700;2023-03-16T09:38:50;10.10;99.90
21849;DHT22;11089;49.852;19.700;2023-03-16T09:45:46;9.20;99.90
21849;DHT22;11089;49.852;19.700;2023-03-16T09:48:46;11.60;99.90
21849;DHT22;11089;49.852;19.700;2023-03-16T09:51:58;11.70;99.90
21849;DHT22;11089;49.852;19.700;2023-03-16T09:55:23;12.10;99.90
21849;DHT22;11089;49.852;19.700;2023-03-16T09:58:26;16.60;99.90
21849;DHT22;11089;49.852;19.700;2023-03-16T10:05:08;14.90;99.90
21849;DHT22;11089;49.852;19.700;2023-03-16T10:08:38;12.90;99.90
21849;DHT22;11089;49.852;19.700;2023-03-16T10:11:52;11.00;99.90
21849;DHT22;11089;49.852;19.700;2023-03-16T10:18:38;9.60;99.90
21849;DHT22;11089;49.852;19.700;2023-03-16T10:21:41;16.60;99.90
21849;DHT22;11089;49.852;19.700;2023-03-16T10:25:07;14.30;99.90
21849;DHT22;11089;49.852;19.700;2023-03-16T10:28:33;12.70;99.90
21849;DHT22;11089;49.852;19.700;2023-03-16T10:31:39;15.10;99.90
21849;DHT22;11089;49.852;19.700;2023-03-16T10:34:43;20.10;99.90
21849;DHT22;11089;49.852;19.700;2023-03-16T10:37:45;24.00;99.90
21849;DHT22;11089;49.852;19.700;2023-03-16T10:40:46;23.10;99.90
21849;DHT22;11089;49.852;19.700;2023-03-16T10:47:02;15.10;99.90
21849;DHT22;11089;49.852;19.700;2023-03-16T10:50:12;13.20;99.90
21849;DHT22;11089;49.852;19.700;2023-03-16T10:53:25;16.20;99.90
21849;DHT22;11089;49.852;19.700;2023-03-16T10:56:33;21.40;99.90
21849;DHT22;11089;49.852;19.700;2023-03-16T10:59:35;23.20;99.90
21849;DHT22;11089;49.852;19.700;2023-03-16T11:02:37;25.10;99.90
21849;DHT22;11089;49.852;19.700;2023-03-16T11:05:39;23.70;99.90
21849;DHT22;11089;49.852;19.700;2023-03-16T11:08:40;19.10;99.90
21849;DHT22;11089;49.852;19.700;2023-03-16T11:11:46;21.50;99.90
21849;DHT22;11089;49.852;19.700;2023-03-16T11:14:49;20.90;99.90
21849;DHT22;11089;49.852;19.700;2023-03-16T11:17:51;19.20;99.90
21849;DHT22;11089;49.852;19.700;2023-03-16T11:20:57;16.70;99.90
21849;DHT22;11089;49.852;19.700;2023-03-16T11:24:01;15.30;99.90
21849;DHT22;11089;49.852;19.700;2023-03-16T11:27:05;14.80;99.90
21849;DHT22;11089;49.852;19.700;2023-03-16T11:30:16;13.80;99.90
21849;DHT22;11089;49.852;19.700;2023-03-16T11:33:20;15.60;99.90
21849;DHT22;11089;49.852;19.700;2023-03-16T11:36:42;15.50;99.90
21849;DHT22;11089;49.852;19.700;2023-03-16T11:40:01;13.60;99.90
21849;DHT22;11089;49.852;19.700;2023-03-16T11:47:00;10.90;99.90
21849;DHT22;11089;49.852;19.700;2023-03-16T11:56:57;13.00;99.90
21849;DHT22;11089;49.852;19.700;2023-03-16T12:00:02;15.90;99.90
21849;DHT22;11089;49.852;19.700;2023-03-16T12:06:43;20.70;99.90
21849;DHT22;11089;49.852;19.700;2023-03-16T12:16:18;24.40;99.90
21849;DHT22;11089;49.852;19.700;2023-03-16T12:22:53;15.90;99.90
21849;DHT22;11089;49.852;19.700;2023-03-16T12:25:56;13.70;99.90
21849;DHT22;11089;49.852;19.700;2023-03-16T12:29:06;12.10;99.90
21849;DHT22;11089;49.852;19.700;2023-03-16T12:35:44;13.90;99.90
21849;DHT22;11089;49.852;19.700;2023-03-16T12:39:05;14.90;99.90
21849;DHT22;11089;49.852;19.700;2023-03-16T12:48:39;18.30;99.90
21849;DHT22;11089;49.852;19.700;2023-03-16T12:51:42;17.00;99.90
21849;DHT22;11089;49.852;19.700;2023-03-16T12:58:07;14.70;99.90
21849;DHT22;11089;49.852;19.700;2023-03-16T13:01:10;14.00;99.90
21849;DHT22;11089;49.852;19.700;2023-03-16T13:04:15;13.00;99.90
21849;DHT22;11089;49.852;19.700;2023-03-16T13:07:23;12.80;99.90
21849;DHT22;11089;49.852;19.700;2023-03-16T13:10:25;12.40;99.90
21849;DHT22;11089;49.852;19.700;2023-03-16T13:13:26;12.10;99.90
21849;DHT22;11089;49.852;19.700;2023-03-16T13:16:32;11.30;99.90
21849;DHT22;11089;49.852;19.700;2023-03-16T13:19:35;11.00;99.90
21849;DHT22;11089;49.852;19.700;2023-03-16T13:22:49;10.50;99.90
21849;DHT22;11089;49.852;19.700;2023-03-16T13:32:31;10.30;99.90
21849;DHT22;11089;49.852;19.700;2023-03-16T13:35:32;10.50;99.90
21849;DHT22;11089;49.852;19.700;2023-03-16T13:38:33;10.50;99.90
21849;DHT22;11089;49.852;19.700;2023-03-16T13:41:35;10.40;99.90
21849;DHT22;11089;49.852;19.700;2023-03-16T13:44:40;10.40;99.90
21849;DHT22;11089;49.852;19.700;2023-03-16T13:47:42;10.30;99.90
21849;DHT22;11089;49.852;19.700;2023-03-16T13:50:49;10.10;99.90
21849;DHT22;11089;49.852;19.700;2023-03-16T13:53:51;9.90;99.90
21849;DHT22;11089;49.852;19.700;2023-03-16T13:57:01;9.70;99.90
21849;DHT22;11089;49.852;19.700;2023-03-16T14:03:18;9.40;99.90
21849;DHT22;11089;49.852;19.700;2023-03-16T14:06:26;9.20;99.90
21849;DHT22;11089;49.852;19.700;2023-03-16T14:09:33;9.20;99.90
21849;DHT22;11089;49.852;19.700;2023-03-16T14:12:34;9.00;99.90
21849;DHT22;11089;49.852;19.700;2023-03-16T14:15:37;8.90;99.90
21849;DHT22;11089;49.852;19.700;2023-03-16T14:21:44;9.20;99.90
21849;DHT22;11089;49.852;19.700;2023-03-16T14:24:51;9.20;99.90
21849;DHT22;11089;49.852;19.700;2023-03-16T14:27:59;9.00;99.90
21849;DHT22;11089;49.852;19.700;2023-03-16T14:31:07;8.90;99.90
21849;DHT22;11089;49.852;19.700;2023-03-16T14:37:21;8.90;99.90
21849;DHT22;11089;49.852;19.700;2023-03-16T14:40:30;8.70;99.90
21849;DHT22;11089;49.852;19.700;2023-03-16T14:43:33;8.30;99.90
21849;DHT22;11089;49.852;19.700;2023-03-16T14:46:38;8.50;99.90
21849;DHT22;11089;49.852;19.700;2023-03-16T14:49:42;8.40;99.90
21849;DHT22;11089;49.852;19.700;2023-03-16T14:52:43;8.40;99.90
21849;DHT22;11089;49.852;19.700;2023-03-16T14:55:45;8.20;99.90
21849;DHT22;11089;49.852;19.700;2023-03-16T14:58:47;8.00;99.90
21849;DHT22;11089;49.852;19.700;2023-03-16T15:01:49;7.80;99.90
21849;DHT22;11089;49.852;19.700;2023-03-16T15:04:51;7.80;99.90
21849;DHT22;11089;49.852;19.700;2023-03-16T15:07:53;7.70;99.90
21849;DHT22;11089;49.852;19.700;2023-03-16T15:10:57;7.80;99.90
21849;DHT22;11089;49.852;19.700;2023-03-16T15:14:00;7.70;99.90
21849;DHT22;11089;49.852;19.700;2023-03-16T15:17:14;7.40;99.90
21849;DHT22;11089;49.852;19.700;2023-03-16T15:20:18;7.30;99.90
21849;DHT22;11089;49.852;19.700;2023-03-16T15:23:19;7.40;99.90
21849;DHT22;11089;49.852;19.700;2023-03-16T15:26:23;7.50;99.90
21849;DHT22;11089;49.852;19.700;2023-03-16T15:29:27;7.60;99.90
21849;DHT22;11089;49.852;19.700;2023-03-16T15:32:28;7.40;99.90
21849;DHT22;11089;49.852;19.700;2023-03-16T15:35:29;7.40;99.90
21849;DHT22;11089;49.852;19.700;2023-03-16T15:38:34;7.40;99.90
21849;DHT22;11089;49.852;19.700;2023-03-16T15:41:39;7.40;99.90
21849;DHT22;11089;49.852;19.700;2023-03-16T15:44:41;7.10;99.90
21849;DHT22;11089;49.852;19.700;2023-03-16T15:47:42;7.10;99.90
21849;DHT22;11089;49.852;19.700;2023-03-16T15:50:58;7.00;99.90
21849;DHT22;11089;49.852;19.700;2023-03-16T15:54:02;6.90;99.90
21849;DHT22;11089;49.852;19.700;2023-03-16T15:57:04;6.90;99.90
21849;DHT22;11089;49.852;19.700;2023-03-16T16:00:06;6.80;99.90
21849;DHT22;11089;49.852;19.700;2023-03-16T16:03:10;6.70;99.90
21849;DHT22;11089;49.852;19.700;2023-03-16T16:06:13;6.60;99.90
21849;DHT22;11089;49.852;19.700;2023-03-16T16:09:14;6.50;99.90
21849;DHT22;11089;49.852;19.700;2023-03-16T16:12:17;6.30;99.90
21849;DHT22;11089;49.852;19.700;2023-03-16T16:18:29;6.10;99.90
21849;DHT22;11089;49.852;19.700;2023-03-16T16:21:31;5.80;99.90
21849;DHT22;11089;49.852;19.700;2023-03-16T16:24:34;5.80;99.90
21849;DHT22;11089;49.852;19.700;2023-03-16T16:27:36;5.80;99.90
21849;DHT22;11089;49.852;19.700;2023-03-16T16:30:37;5.50;99.90
21849;DHT22;11089;49.852;19.700;2023-03-16T16:33:39;5.50;99.90
21849;DHT22;11089;49.852;19.700;2023-03-16T16:36:40;5.40;99.90
21849;DHT22;11089;49.852;19.700;2023-03-16T16:39:41;5.50;99.90
21849;DHT22;11089;49.852;19.700;2023-03-16T16:42:44;5.30;99.90
21849;DHT22;11089;49.852;19.700;2023-03-16T16:45:45;5.20;99.90
21849;DHT22;11089;49.852;19.700;2023-03-16T16:48:51;5.10;99.90
21849;DHT22;11089;49.852;19.700;2023-03-16T16:51:53;4.90;99.90
21849;DHT22;11089;49.852;19.700;2023-03-16T16:54:54;4.90;99.90
21849;DHT22;11089;49.852;19.700;2023-03-16T16:57:55;4.60;99.90
21849;DHT22;11089;49.852;19.700;2023-03-16T17:00:56;4.50;99.90
21849;DHT22;11089;49.852;19.700;2023-03-16T17:03:59;4.50;99.90
21849;DHT22;11089;49.852;19.700;2023-03-16T17:07:00;4.40;99.90
21849;DHT22;11089;49.852;19.700;2023-03-16T17:10:02;4.20;99.90
21849;DHT22;11089;49.852;19.700;2023-03-16T17:13:03;4.00;99.90
21849;DHT22;11089;49.852;19.700;2023-03-16T17:16:05;4.00;99.90
21849;DHT22;11089;49.852;19.700;2023-03-16T17:22:25;3.60;99.90
21849;DHT22;11089;49.852;19.700;2023-03-16T17:25:28;3.70;99.90
21849;DHT22;11089;49.852;19.700;2023-03-16T17:28:33;3.70;99.90
21849;DHT22;11089;49.852;19.700;2023-03-16T17:31:37;3.80;99.90
21849;DHT22;11089;49.852;19.700;2023-03-16T17:34:40;4.40;1.00
21849;DHT22;11089;49.852;19.700;2023-03-16T17:37:41;3.60;1.00
21849;DHT22;11089;49.852;19.700;2023-03-16T17:40:42;3.50;99.90
21849;DHT22;11089;49.852;19.700;2023-03-16T17:43:43;3.90;99.90
21849;DHT22;11089;49.852;19.700;2023-03-16T17:46:44;3.20;99.90
21849;DHT22;11089;49.852;19.700;2023-03-16T17:49:46;3.60;89.70
21849;DHT22;11089;49.852;19.700;2023-03-16T17:52:48;3.80;99.90
21849;DHT22;11089;49.852;19.700;2023-03-16T17:55:49;2.90;99.90
21849;DHT22;11089;49.852;19.700;2023-03-16T17:58:52;4.00;37.80
21849;DHT22;11089;49.852;19.700;2023-03-16T18:01:56;3.10;99.90
21849;DHT22;11089;49.852;19.700;2023-03-16T18:04:57;2.80;58.20
21849;DHT22;11089;49.852;19.700;2023-03-16T18:08:13;4.10;99.90
21849;DHT22;11089;49.852;19.700;2023-03-16T18:11:22;3.30;99.90
21849;DHT22;11089;49.852;19.700;2023-03-16T18:14:33;2.70;99.90
21849;DHT22;11089;49.852;19.700;2023-03-16T18:20:37;3.20;1.00
21849;DHT22;11089;49.852;19.700;2023-03-16T18:23:38;2.90;99.90
21849;DHT22;11089;49.852;19.700;2023-03-16T18:26:39;2.90;99.90
21849;DHT22;11089;49.852;19.700;2023-03-16T18:29:40;2.70;1.00
21849;DHT22;11089;49.852;19.700;2023-03-16T18:32:46;2.70;1.00
21849;DHT22;11089;49.852;19.700;2023-03-16T18:35:48;2.70;1.00
21849;DHT22;11089;49.852;19.700;2023-03-16T18:38:50;2.90;99.90
21849;DHT22;11089;49.852;19.700;2023-03-16T18:41:52;2.10;1.00
21849;DHT22;11089;49.852;19.700;2023-03-16T18:44:53;3.10;1.00
21849;DHT22;11089;49.852;19.700;2023-03-16T18:47:54;2.50;1.00
21849;DHT22;11089;49.852;19.700;2023-03-16T18:50:58;2.50;1.00
21849;DHT22;11089;49.852;19.700;2023-03-16T18:53:59;2.40;1.00
21849;DHT22;11089;49.852;19.700;2023-03-16T18:57:00;2.40;1.00
21849;DHT22;11089;49.852;19.700;2023-03-16T19:00:04;2.30;1.00
21849;DHT22;11089;49.852;19.700;2023-03-16T19:03:05;2.30;1.00
21849;DHT22;11089;49.852;19.700;2023-03-16T19:06:17;2.30;1.00
21849;DHT22;11089;49.852;19.700;2023-03-16T19:09:25;2.40;1.00
21849;DHT22;11089;49.852;19.700;2023-03-16T19:12:27;2.30;1.00
21849;DHT22;11089;49.852;19.700;2023-03-16T19:15:30;2.30;1.00
21849;DHT22;11089;49.852;19.700;2023-03-16T19:18:31;2.20;1.00
21849;DHT22;11089;49.852;19.700;2023-03-16T19:21:42;2.20;1.00
21849;DHT22;11089;49.852;19.700;2023-03-16T19:24:52;2.10;1.00
21849;DHT22;11089;49.852;19.700;2023-03-16T19:27:54;2.00;1.00
21849;DHT22;11089;49.852;19.700;2023-03-16T19:30:55;2.00;1.00
21849;DHT22;11089;49.852;19.700;2023-03-16T19:33:57;1.80;1.00
21849;DHT22;11089;49.852;19.700;2023-03-16T19:36:58;1.70;1.00
21849;DHT22;11089;49.852;19.700;2023-03-16T19:39:59;1.80;1.00
21849;DHT22;11089;49.852;19.700;2023-03-16T19:43:00;1.80;1.00
21849;DHT22;11089;49.852;19.700;2023-03-16T19:46:01;1.80;1.00
21849;DHT22;11089;49.852;19.700;2023-03-16T19:49:02;1.80;1.00
21849;DHT22;11089;49.852;19.700;2023-03-16T19:52:08;1.60;1.00
21849;DHT22;11089;49.852;19.700;2023-03-16T19:55:20;1.70;1.00
21849;DHT22;11089;49.852;19.700;2023-03-16T20:01:40;1.50;1.00
21849;DHT22;11089;49.852;19.700;2023-03-16T20:04:40;1.40;1.00
21849;DHT22;11089;49.852;19.700;2023-03-16T20:07:41;1.30;1.00
21849;DHT22;11089;49.852;19.700;2023-03-16T20:10:42;1.20;1.00
21849;DHT22;11089;49.852;19.700;2023-03-16T20:13:45;1.00;1.00
21849;DHT22;11089;49.852;19.700;2023-03-16T20:16:46;1.00;1.00
21849;DHT22;11089;49.852;19.700;2023-03-16T20:19:48;0.90;97.60
21849;DHT22;11089;49.852;19.700;2023-03-16T20:22:49;0.90;93.90
21849;DHT22;11089;49.852;19.700;2023-03-16T20:25:53;0.70;99.90
21849;DHT22;11089;49.852;19.700;2023-03-16T20:28:55;0.60;99.90
21849;DHT22;11089;49.852;19.700;2023-03-16T20:31:56;0.60;99.90
21849;DHT22;11089;49.852;19.700;2023-03-16T20:34:58;0.60;99.90
21849;DHT22;11089;49.852;19.700;2023-03-16T20:37:59;0.60;99.90
21849;DHT22;11089;49.852;19.700;2023-03-16T20:40:59;0.50;99.90